Tropical Cyclones
[Index]
Main Index Home Page Stock Weather Photos Extreme Storms Discussion Storm News and Storm Chasing Reports Tropical Cyclones / Hurricanes / Typhoons Weather Data and Links Wild Fires / Bushfires Weather Observation Techniques Weather Picture Catalogue Tornado Pictures and Reports Stock Video Footage and DVDs for sale
Season 2002-2003 Tropical Cyclone AMI Track Map
Season 2002-2003 Summaries (Operational Data): [AU] [SIO] [SPAC] [SH]
<<- Previous TC | 2002-2003 Season | Next TC ->>

click for intensity scale information  Lat/long Grid: Show Hide

 Date Labels: Show Hide

Operational Tropical Cyclone Data : JTWC Advisories

Name: AMI
Number: 0310

09 Jan 2003 21:00 UTC to 15 Jan 2003 23:00 UTC

    date/time    lat    long     hPa   cat  kts
2003-01-09 21    8.0   176.0W   1002                     
2003-01-10 06    8.5   176.3W   1000                     
2003-01-10 21    9.7   177.8W   1000                     
2003-01-11 06    9.8   179.1W   1000                     
2003-01-11 18   11.2   179.2W                            
2003-01-11 21   11.0   179.0W   1000                     
2003-01-12 00   10.8   179.4W    995    1    40          
2003-01-12 06   11.4   179.8W    990    1    40          
2003-01-12 12   11.9   180.0     985    2    50          
2003-01-12 18   12.4   179.8     975    2    60          
2003-01-13 00   13.0   179.7     975    2    60          
2003-01-13 06   14.0   179.8     970    3    65          
2003-01-13 12   15.3   179.8     960    3    75          
2003-01-13 18   17.2   179.9W    960    3    75          
2003-01-14 00   19.1   179.2W    960    3    80          
2003-01-14 06   20.9   178.2W    950    3    80          
2003-01-14 12   23.0   176.2W    950    3    80          
2003-01-14 18   25.1   173.4W                            
2003-01-15 00   26.5   170.0W    970    3    70          
2003-01-15 06   28.9   167.1W    976    2    60          
2003-01-15 11   29.0   163.0W    980    1    35          
2003-01-15 17   28.5   160.0W    985    1    35          
2003-01-15 23   31.0   157.0W    993    1    35          
Winds are 10-min average.

Tropical cyclone tracks developed by Michael Bath using operational warnings and advisories and Google Maps.


[Australian Severe Weather index] [Copyright Notice] [Email Contacts] [Search This Site] [Privacy Policy]
Document: tropical_cyclone_ami.htm Updated: 2 May 2017